Time;durP1;ratioP1;P1;durP2;ratioP2;P2;SDS_P1;SDS_P2;PMS_P1;PMS_P2;Temp;Humidity;BMP_temperature;BMP_pressure;BME280_temperature;BME280_humidity;BME280_pressure;Samples;Min_cycle;Max_cycle;Signal;HPM_P1;HPM_P2
2021/04/17 00:01:45;;;;;;;13.00;12.50;;;24.10;91.00;;;;;;3626102;39;20467;-46
2021/04/17 00:04:13;;;;;;;13.50;12.90;;;24.10;91.00;;;;;;3627669;39;20545;-45
2021/04/17 00:06:40;;;;;;;13.93;12.87;;;24.10;91.00;;;;;;3625670;39;20823;-45
2021/04/17 00:09:09;;;;;;;13.00;12.50;;;24.10;91.00;;;;;;3626631;39;20465;-46
2021/04/17 00:11:38;;;;;;;12.90;12.37;;;24.10;91.00;;;;;;3626326;39;20589;-43
2021/04/17 00:14:06;;;;;;;13.37;12.77;;;24.10;91.00;;;;;;3627560;39;20538;-45
2021/04/17 00:16:33;;;;;;;12.80;12.10;;;24.10;91.00;;;;;;3626821;39;20830;-44
2021/04/17 00:19:01;;;;;;;12.97;12.47;;;24.10;91.00;;;;;;3626203;39;20478;-45
2021/04/17 00:21:27;;;;;;;13.23;12.53;;;24.20;91.00;;;;;;3626110;39;20521;-45
2021/04/17 00:23:54;;;;;;;12.87;12.23;;;24.10;90.90;;;;;;3627088;39;20706;-44
2021/04/17 00:26:21;;;;;;;12.97;12.47;;;24.20;90.90;;;;;;3628389;39;20549;-46
2021/04/17 00:28:49;;;;;;;13.20;12.60;;;24.20;90.90;;;;;;3626883;39;20463;-46
2021/04/17 00:31:16;;;;;;;13.87;12.93;;;24.10;90.90;;;;;;3626871;39;20488;-47
2021/04/17 00:33:43;;;;;;;13.20;12.60;;;24.20;90.90;;;;;;3624655;39;20502;-44
2021/04/17 00:36:10;;;;;;;13.70;13.10;;;24.20;90.90;;;;;;3625856;39;21181;-44
2021/04/17 00:38:38;;;;;;;14.10;13.23;;;24.20;90.90;;;;;;3627568;39;20485;-45
2021/04/17 00:41:05;;;;;;;13.60;12.73;;;24.20;91.20;;;;;;3626820;39;20815;-44
2021/04/17 00:43:32;;;;;;;14.57;13.77;;;24.20;90.90;;;;;;3625855;39;20787;-45
2021/04/17 00:46:00;;;;;;;13.43;12.83;;;24.20;90.90;;;;;;3626667;39;20553;-46
2021/04/17 00:48:27;;;;;;;14.50;13.80;;;24.20;90.90;;;;;;3626274;39;20462;-46
2021/04/17 00:50:54;;;;;;;13.87;12.90;;;24.20;90.90;;;;;;3625248;39;20778;-45
2021/04/17 00:53:21;;;;;;;14.00;13.20;;;24.20;90.80;;;;;;3625938;39;20671;-45
2021/04/17 00:55:51;;;;;;;13.80;13.00;;;24.20;90.80;;;;;;3627174;39;20475;-46
2021/04/17 00:58:18;;;;;;;13.27;12.67;;;24.20;91.20;;;;;;3628587;39;20528;-45
2021/04/17 01:00:46;;;;;;;13.60;12.93;;;24.20;90.80;;;;;;3628712;39;20493;-45
2021/04/17 01:03:20;;;;;;;13.53;13.03;;;24.20;90.80;;;;;;3629193;39;20767;-45
2021/04/17 01:05:51;;;;;;;13.50;12.90;;;24.20;90.80;;;;;;3628147;39;20464;-44
2021/04/17 01:08:28;;;;;;;13.53;13.03;;;24.20;90.80;;;;;;3628164;39;20528;-47
2021/04/17 01:10:59;;;;;;;13.13;12.57;;;24.20;90.80;;;;;;3628424;39;20463;-45
2021/04/17 01:13:27;;;;;;;13.87;13.27;;;24.20;90.80;;;;;;3628899;39;20445;-45
2021/04/17 01:15:56;;;;;;;13.10;12.60;;;24.20;90.80;;;;;;3628537;39;20811;-45
2021/04/17 01:18:24;;;;;;;13.03;12.33;;;24.20;90.80;;;;;;3628772;39;20951;-46
2021/04/17 01:20:55;;;;;;;13.30;12.60;;;24.20;90.80;;;;;;3628105;39;20454;-46
2021/04/17 01:23:33;;;;;;;12.97;12.47;;;24.20;90.80;;;;;;3629458;39;20467;-47
2021/04/17 01:26:04;;;;;;;13.33;12.33;;;24.20;90.80;;;;;;3629416;39;20472;-45
2021/04/17 01:28:35;;;;;;;14.07;13.30;;;24.20;90.80;;;;;;3628033;39;20484;-43
2021/04/17 01:31:04;;;;;;;14.00;13.30;;;24.20;90.80;;;;;;3626986;39;20458;-42
2021/04/17 01:33:33;;;;;;;14.13;13.33;;;24.20;90.70;;;;;;3617429;39;20873;-44
2021/04/17 01:36:02;;;;;;;13.40;12.87;;;24.20;90.70;;;;;;3617169;39;20550;-42
2021/04/17 01:38:32;;;;;;;13.83;13.00;;;24.20;90.70;;;;;;3617703;39;20667;-42
2021/04/17 01:41:04;;;;;;;13.30;12.53;;;24.20;90.70;;;;;;3617703;39;20468;-42
2021/04/17 01:43:32;;;;;;;13.63;13.00;;;24.20;90.70;;;;;;3618023;39;20481;-43
2021/04/17 01:46:05;;;;;;;13.27;12.77;;;24.20;90.70;;;;;;3618602;39;20495;-42
2021/04/17 01:48:33;;;;;;;13.33;12.80;;;24.20;90.70;;;;;;3627930;39;20516;-42
2021/04/17 01:51:01;;;;;;;13.07;12.60;;;24.20;90.70;;;;;;3627335;39;20666;-42
2021/04/17 01:53:31;;;;;;;13.00;12.50;;;24.20;91.00;;;;;;3626849;39;20465;-42
2021/04/17 01:56:00;;;;;;;13.37;12.73;;;24.20;90.70;;;;;;3627888;39;20453;-43
2021/04/17 01:58:32;;;;;;;14.53;13.70;;;24.20;90.70;;;;;;3628168;39;20479;-45
2021/04/17 02:00:59;;;;;;;13.70;13.10;;;24.20;90.70;;;;;;3627728;39;20545;-42
2021/04/17 02:03:26;;;;;;;13.07;12.47;;;24.20;90.70;;;;;;3626904;39;20542;-43
2021/04/17 02:05:55;;;;;;;13.97;12.83;;;24.20;90.70;;;;;;3627886;39;20670;-42
2021/04/17 02:08:22;;;;;;;13.07;12.53;;;24.20;90.70;;;;;;3626575;39;20469;-44
2021/04/17 02:10:51;;;;;;;13.30;12.60;;;24.20;90.70;;;;;;3626827;39;20519;-42
2021/04/17 02:13:19;;;;;;;13.80;13.20;;;24.20;90.70;;;;;;3627786;39;20480;-42
2021/04/17 02:15:47;;;;;;;13.00;12.40;;;24.20;90.70;;;;;;3627203;39;20735;-42
2021/04/17 02:18:25;;;;;;;13.23;12.63;;;24.20;90.70;;;;;;3628400;39;20521;-42
2021/04/17 02:21:00;;;;;;;13.23;12.73;;;24.20;90.70;;;;;;3628587;39;20870;-42
2021/04/17 02:23:29;;;;;;;13.47;12.77;;;24.20;90.70;;;;;;3628374;39;20771;-44
2021/04/17 02:25:57;;;;;;;13.60;13.00;;;24.20;90.60;;;;;;3628158;39;20465;-42
2021/04/17 02:28:25;;;;;;;13.50;12.90;;;24.20;90.60;;;;;;3629178;39;20509;-43
2021/04/17 02:30:53;;;;;;;13.93;13.33;;;24.20;90.60;;;;;;3627436;39;20816;-44
2021/04/17 02:33:21;;;;;;;14.00;13.40;;;24.20;90.60;;;;;;3627735;39;20445;-42
2021/04/17 02:35:47;;;;;;;13.73;13.03;;;24.20;90.60;;;;;;3628216;39;20448;-44
2021/04/17 02:38:14;;;;;;;14.23;13.63;;;24.20;90.60;;;;;;3627295;39;20864;-42
2021/04/17 02:40:42;;;;;;;13.77;13.20;;;24.20;90.60;;;;;;3627860;39;20461;-42
2021/04/17 02:43:09;;;;;;;13.50;13.00;;;24.20;90.60;;;;;;3627079;39;20468;-42
2021/04/17 02:45:37;;;;;;;14.10;13.40;;;24.20;90.60;;;;;;3627959;39;20915;-42
2021/04/17 02:48:06;;;;;;;13.60;13.03;;;24.20;90.60;;;;;;3629427;39;20479;-43
2021/04/17 02:50:34;;;;;;;13.30;12.73;;;24.20;90.60;;;;;;3627829;39;20488;-42
2021/04/17 02:53:01;;;;;;;14.23;13.63;;;24.20;90.60;;;;;;3628846;39;20581;-42
2021/04/17 02:55:27;;;;;;;14.20;13.60;;;24.20;90.60;;;;;;3626342;39;20456;-43
2021/04/17 02:57:55;;;;;;;13.70;13.20;;;24.20;90.60;;;;;;3626363;39;20680;-42
2021/04/17 03:00:23;;;;;;;14.03;13.43;;;24.20;90.60;;;;;;3628040;39;20648;-42
2021/04/17 03:02:50;;;;;;;14.30;13.60;;;24.20;90.60;;;;;;3627926;39;20732;-42
2021/04/17 03:05:18;;;;;;;14.30;13.60;;;24.20;90.50;;;;;;3628731;39;20839;-42
2021/04/17 03:07:58;;;;;;;13.27;12.77;;;24.20;90.60;;;;;;3625336;39;20605;-44
2021/04/17 03:10:25;;;;;;;13.33;12.83;;;24.20;90.60;;;;;;3625882;39;20486;-42
2021/04/17 03:12:52;;;;;;;13.17;12.67;;;24.20;90.60;;;;;;3625947;39;20496;-42
2021/04/17 03:15:20;;;;;;;13.37;12.77;;;24.20;90.60;;;;;;3626912;39;20683;-43
2021/04/17 03:17:47;;;;;;;13.23;12.67;;;24.20;90.60;;;;;;3627134;39;20479;-42
2021/04/17 03:20:14;;;;;;;13.17;12.67;;;24.20;90.50;;;;;;3626220;39;20473;-42
2021/04/17 03:22:41;;;;;;;13.70;13.20;;;24.20;90.50;;;;;;3624739;39;20484;-42
2021/04/17 03:25:11;;;;;;;13.20;12.60;;;24.20;90.50;;;;;;3625579;39;20469;-44
2021/04/17 03:27:38;;;;;;;13.77;13.17;;;24.30;90.60;;;;;;3625714;39;20846;-44
2021/04/17 03:30:09;;;;;;;13.63;13.00;;;24.20;90.50;;;;;;3625528;39;20467;-44
2021/04/17 03:32:35;;;;;;;13.47;12.90;;;24.30;90.60;;;;;;3625170;39;20869;-42
2021/04/17 03:35:03;;;;;;;13.77;13.27;;;24.30;90.50;;;;;;3624976;39;20480;-44
2021/04/17 03:37:30;;;;;;;13.73;13.23;;;24.20;90.50;;;;;;3624196;39;20468;-42
2021/04/17 03:39:57;;;;;;;13.70;13.20;;;24.30;90.50;;;;;;3626111;39;20562;-42
2021/04/17 03:42:25;;;;;;;13.87;13.23;;;24.20;90.50;;;;;;3624834;39;20466;-44
2021/04/17 03:44:52;;;;;;;13.70;13.10;;;24.20;90.40;;;;;;3625184;39;20548;-42
2021/04/17 03:47:19;;;;;;;14.27;13.67;;;24.30;90.50;;;;;;3625806;39;20471;-44
2021/04/17 03:49:47;;;;;;;14.30;13.60;;;24.30;90.50;;;;;;3625148;39;20461;-43
2021/04/17 03:52:14;;;;;;;13.70;13.10;;;24.30;90.50;;;;;;3625937;39;20483;-44
2021/04/17 03:54:41;;;;;;;13.17;12.67;;;24.30;90.50;;;;;;3623330;39;20681;-43
2021/04/17 03:57:09;;;;;;;13.80;13.20;;;24.30;90.40;;;;;;3624858;39;20556;-42
2021/04/17 03:59:37;;;;;;;13.67;13.03;;;24.30;90.40;;;;;;3625256;39;20445;-43
2021/04/17 04:02:04;;;;;;;13.67;13.17;;;24.40;90.50;;;;;;3626092;39;20488;-43
2021/04/17 04:04:31;;;;;;;14.27;13.10;;;24.30;90.40;;;;;;3625508;39;20456;-42
2021/04/17 04:06:58;;;;;;;13.77;13.17;;;24.40;90.40;;;;;;3625471;39;21144;-43
2021/04/17 04:09:25;;;;;;;14.07;13.53;;;24.40;90.40;;;;;;3625380;39;20892;-43
2021/04/17 04:11:51;;;;;;;13.70;13.20;;;24.40;90.40;;;;;;3625372;39;20463;-42
2021/04/17 04:14:19;;;;;;;14.23;13.63;;;24.40;90.40;;;;;;3626241;39;20538;-44
2021/04/17 04:16:47;;;;;;;14.33;13.73;;;24.40;90.40;;;;;;3625879;39;20666;-42
2021/04/17 04:19:14;;;;;;;14.87;14.30;;;24.40;90.30;;;;;;3618278;39;20477;-43
2021/04/17 04:21:41;;;;;;;14.53;13.93;;;24.40;90.30;;;;;;3619193;39;20508;-42
2021/04/17 04:24:09;;;;;;;14.60;14.00;;;24.50;90.30;;;;;;3619232;39;20475;-42
2021/04/17 04:26:37;;;;;;;14.40;13.80;;;24.50;90.30;;;;;;3618874;39;20514;-43
2021/04/17 04:29:04;;;;;;;14.80;14.20;;;24.50;90.30;;;;;;3617933;39;20726;-43
2021/04/17 04:31:31;;;;;;;14.50;14.00;;;24.50;90.20;;;;;;3619520;39;20461;-42
2021/04/17 04:33:59;;;;;;;15.03;14.43;;;24.50;90.20;;;;;;3617575;39;20462;-43
2021/04/17 04:36:27;;;;;;;14.50;13.80;;;24.60;90.30;;;;;;3617843;39;20474;-42
2021/04/17 04:38:54;;;;;;;14.40;13.90;;;24.50;90.20;;;;;;3618013;39;20590;-43
2021/04/17 04:41:21;;;;;;;14.90;14.20;;;24.60;90.20;;;;;;3617035;39;20456;-45
2021/04/17 04:43:47;;;;;;;14.73;14.07;;;24.60;90.20;;;;;;3617343;39;20485;-42
2021/04/17 04:46:15;;;;;;;14.10;13.50;;;24.60;90.20;;;;;;3617565;39;20459;-42
2021/04/17 04:48:42;;;;;;;14.43;13.83;;;24.60;90.20;;;;;;3617031;39;20474;-44
2021/04/17 04:51:10;;;;;;;14.10;13.50;;;24.60;90.20;;;;;;3617973;39;21224;-42
2021/04/17 04:53:37;;;;;;;14.60;14.00;;;24.60;90.10;;;;;;3617823;39;20861;-42
2021/04/17 04:56:06;;;;;;;14.50;13.87;;;24.60;90.10;;;;;;3617778;39;20468;-42
2021/04/17 04:58:33;;;;;;;14.10;13.53;;;24.60;90.10;;;;;;3617947;39;20464;-42
2021/04/17 05:01:00;;;;;;;14.50;13.90;;;24.60;90.10;;;;;;3617915;39;20476;-42
2021/04/17 05:03:26;;;;;;;14.17;13.57;;;24.70;90.10;;;;;;3618041;39;20500;-43
2021/04/17 05:05:53;;;;;;;15.10;14.50;;;24.70;90.10;;;;;;3616830;39;21093;-43
2021/04/17 05:08:21;;;;;;;14.67;13.97;;;24.70;90.10;;;;;;3616501;39;20553;-43
2021/04/17 05:10:47;;;;;;;14.17;13.67;;;24.70;90.10;;;;;;3614836;39;20466;-42
2021/04/17 05:13:15;;;;;;;13.80;13.30;;;24.70;90.00;;;;;;3617212;39;20485;-42
2021/04/17 05:15:42;;;;;;;14.07;13.53;;;24.70;90.00;;;;;;3613059;39;20492;-42
2021/04/17 05:18:09;;;;;;;14.03;13.47;;;24.80;90.00;;;;;;3615395;39;20565;-43
2021/04/17 05:20:36;;;;;;;14.53;13.80;;;24.80;90.00;;;;;;3615663;39;20698;-43
2021/04/17 05:23:03;;;;;;;13.93;13.43;;;24.80;90.00;;;;;;3617189;39;20877;-43
2021/04/17 05:25:32;;;;;;;14.20;13.67;;;24.80;90.00;;;;;;3616619;39;20456;-42
2021/04/17 05:27:59;;;;;;;14.97;14.33;;;24.80;90.00;;;;;;3616915;39;20543;-42
2021/04/17 05:30:26;;;;;;;14.67;13.97;;;24.80;90.00;;;;;;3616531;39;20512;-44
2021/04/17 05:32:54;;;;;;;14.37;13.87;;;24.80;89.90;;;;;;3615964;39;20465;-42
2021/04/17 05:35:21;;;;;;;14.33;13.73;;;24.80;89.80;;;;;;3615572;39;20487;-42
2021/04/17 05:37:48;;;;;;;14.53;14.00;;;24.80;89.80;;;;;;3617298;39;21214;-42
2021/04/17 05:40:15;;;;;;;14.83;14.10;;;24.80;89.70;;;;;;3616726;39;20453;-42
2021/04/17 05:42:43;;;;;;;14.60;14.03;;;24.90;89.80;;;;;;3604084;39;20801;-43
2021/04/17 05:45:11;;;;;;;14.80;14.20;;;24.80;89.60;;;;;;3614648;39;20490;-42
2021/04/17 05:47:38;;;;;;;14.90;14.30;;;24.80;89.50;;;;;;3613900;39;20456;-42
2021/04/17 05:50:06;;;;;;;14.67;14.07;;;24.90;89.60;;;;;;3616762;39;20680;-42
2021/04/17 05:52:34;;;;;;;15.00;14.27;;;24.90;89.60;;;;;;3616217;39;20497;-43
2021/04/17 05:55:00;;;;;;;14.87;14.17;;;24.90;89.50;;;;;;3615125;39;20482;-42
2021/04/17 05:57:27;;;;;;;15.57;14.77;;;24.90;89.60;;;;;;3615241;39;20488;-43
2021/04/17 05:59:55;;;;;;;14.63;14.10;;;24.90;89.60;;;;;;3610894;39;20823;-42
2021/04/17 06:02:24;;;;;;;15.30;14.60;;;24.90;89.60;;;;;;3613864;39;20530;-43
2021/04/17 06:04:51;;;;;;;15.20;14.60;;;24.90;89.50;;;;;;3613846;39;20910;-42
2021/04/17 06:07:18;;;;;;;13.77;13.20;;;24.90;89.50;;;;;;3613278;39;20705;-43
2021/04/17 06:09:45;;;;;;;14.63;14.00;;;24.90;89.40;;;;;;3615797;39;20489;-43
2021/04/17 06:12:14;;;;;;;14.53;13.90;;;24.90;89.40;;;;;;3613101;39;20845;-43
2021/04/17 06:14:41;;;;;;;14.30;13.77;;;24.90;89.40;;;;;;3615891;39;21019;-42
2021/04/17 06:17:10;;;;;;;15.23;14.53;;;24.90;89.30;;;;;;3616860;39;20474;-43
2021/04/17 06:19:37;;;;;;;14.80;14.20;;;25.00;89.40;;;;;;3615950;39;20567;-43
2021/04/17 06:22:04;;;;;;;14.20;13.60;;;25.00;89.30;;;;;;3614607;39;20674;-43
2021/04/17 06:24:32;;;;;;;14.50;13.90;;;25.00;89.20;;;;;;3615837;39;20870;-42
2021/04/17 06:26:59;;;;;;;14.60;14.00;;;25.00;89.20;;;;;;3614784;39;20474;-43
2021/04/17 06:29:26;;;;;;;14.67;13.97;;;25.00;89.20;;;;;;3615258;39;20475;-42
2021/04/17 06:31:53;;;;;;;14.50;14.00;;;25.00;89.20;;;;;;3614024;39;20486;-43
2021/04/17 06:34:22;;;;;;;15.10;14.40;;;25.00;89.10;;;;;;3614558;39;20469;-42
2021/04/17 06:36:49;;;;;;;14.97;14.17;;;25.00;89.20;;;;;;3614560;39;20473;-43
2021/04/17 06:39:17;;;;;;;14.83;14.23;;;25.00;89.10;;;;;;3614558;39;20581;-42
2021/04/17 06:41:48;;;;;;;14.83;14.07;;;25.00;89.10;;;;;;3612714;39;20469;-42
2021/04/17 06:44:16;;;;;;;20.13;18.73;;;25.00;89.10;;;;;;3613019;39;20559;-42
2021/04/17 06:46:43;;;;;;;24.30;22.83;;;24.90;85.60;;;;;;3612293;39;20662;-43
2021/04/17 06:49:11;;;;;;;25.10;23.50;;;24.70;59.90;;;;;;3613576;39;20487;-43
2021/04/17 06:51:41;;;;;;;25.50;23.70;;;24.20;55.30;;;;;;3614228;39;20541;-43
2021/04/17 06:54:11;;;;;;;23.23;21.73;;;23.70;54.20;;;;;;3613144;39;20457;-43
2021/04/17 06:56:39;;;;;;;21.50;20.10;;;23.30;57.00;;;;;;3614635;39;20545;-42
2021/04/17 06:59:06;;;;;;;20.47;19.27;;;23.10;63.60;;;;;;3614854;39;20452;-42
2021/04/17 07:01:38;;;;;;;19.10;17.90;;;23.20;70.60;;;;;;3614177;39;20594;-43
2021/04/17 07:04:05;;;;;;;19.83;18.63;;;23.30;74.30;;;;;;3614364;39;20481;-44
2021/04/17 07:06:33;;;;;;;19.53;18.30;;;23.50;75.90;;;;;;3613941;39;20581;-43
2021/04/17 07:09:00;;;;;;;19.80;18.70;;;23.60;76.70;;;;;;3615380;39;20467;-45
2021/04/17 07:11:28;;;;;;;19.30;18.10;;;23.70;77.20;;;;;;3614862;39;20473;-44
2021/04/17 07:14:06;;;;;;;17.70;16.80;;;23.80;77.60;;;;;;3613611;39;20470;-42
2021/04/17 07:16:53;;;;;;;17.67;16.80;;;23.90;77.80;;;;;;3615945;39;20481;-44
2021/04/17 07:19:21;;;;;;;17.87;16.90;;;24.00;78.10;;;;;;3615249;39;20553;-43
2021/04/17 07:21:48;;;;;;;18.37;17.47;;;24.10;78.20;;;;;;3615495;39;20627;-43
2021/04/17 07:24:25;;;;;;;18.30;17.30;;;24.20;78.40;;;;;;3613879;39;20479;-42
2021/04/17 07:26:52;;;;;;;18.20;17.00;;;24.30;78.50;;;;;;3613474;39;20474;-43
2021/04/17 07:29:20;;;;;;;18.23;17.37;;;24.30;78.60;;;;;;3612729;39;20520;-43
2021/04/17 07:31:53;;;;;;;17.27;16.17;;;24.40;78.60;;;;;;3612807;39;20481;-44
2021/04/17 07:34:22;;;;;;;16.57;15.87;;;24.40;78.50;;;;;;3613693;39;20872;-42
2021/04/17 07:36:52;;;;;;;17.07;16.20;;;24.50;78.80;;;;;;3612655;39;20486;-43
2021/04/17 07:39:31;;;;;;;18.03;17.03;;;24.50;78.80;;;;;;3613271;39;20480;-44
2021/04/17 07:42:05;;;;;;;17.33;16.43;;;24.60;79.00;;;;;;3613872;39;20525;-43
2021/04/17 07:44:36;;;;;;;17.50;16.50;;;24.60;79.00;;;;;;3612926;39;21095;-44
2021/04/17 07:47:03;;;;;;;17.53;16.33;;;24.60;79.10;;;;;;3611900;39;21139;-43
2021/04/17 07:49:32;;;;;;;16.70;15.70;;;24.70;79.20;;;;;;3612795;39;20481;-43
2021/04/17 07:52:04;;;;;;;16.93;16.03;;;24.70;79.30;;;;;;3613653;39;20461;-43
2021/04/17 07:54:32;;;;;;;17.20;16.40;;;24.70;79.40;;;;;;3614317;39;20471;-43
2021/04/17 07:57:05;;;;;;;16.80;15.83;;;24.70;79.40;;;;;;3615854;39;20975;-43
2021/04/17 07:59:33;;;;;;;17.50;16.40;;;24.80;79.60;;;;;;3614449;39;20479;-43
2021/04/17 08:02:02;;;;;;;17.73;16.63;;;24.80;79.70;;;;;;3614380;39;20464;-45
2021/04/17 08:04:30;;;;;;;16.90;16.00;;;24.80;79.70;;;;;;3614189;39;20472;-45
2021/04/17 08:06:58;;;;;;;17.27;16.30;;;24.80;79.80;;;;;;3612896;39;20482;-44
2021/04/17 08:09:26;;;;;;;16.83;15.87;;;24.90;79.90;;;;;;3613968;39;20496;-44
2021/04/17 08:11:56;;;;;;;16.50;15.60;;;24.90;80.10;;;;;;3615675;39;20712;-43
2021/04/17 08:14:43;;;;;;;16.07;15.37;;;24.90;80.10;;;;;;3612853;39;20829;-44
2021/04/17 08:17:09;;;;;;;17.13;16.07;;;24.90;80.20;;;;;;3615414;39;20493;-42
2021/04/17 08:19:43;;;;;;;19.20;17.20;;;25.00;80.40;;;;;;3615795;39;20504;-42
2021/04/17 08:22:10;;;;;;;17.57;16.63;;;25.00;80.50;;;;;;3615988;39;20497;-42
2021/04/17 08:24:38;;;;;;;18.30;16.90;;;25.00;80.50;;;;;;3611086;39;20577;-45
2021/04/17 08:27:07;;;;;;;17.97;16.77;;;24.90;80.60;;;;;;3607504;39;20662;-45
2021/04/17 08:29:45;;;;;;;16.70;15.80;;;24.90;81.00;;;;;;3613102;39;20473;-44
2021/04/17 08:32:30;;;;;;;17.60;16.70;;;24.90;81.10;;;;;;3612702;39;20472;-43
2021/04/17 08:35:05;;;;;;;17.63;16.53;;;24.90;81.30;;;;;;3614223;39;20496;-43
2021/04/17 08:37:33;;;;;;;16.30;15.57;;;24.90;81.30;;;;;;3613630;39;20715;-42
2021/04/17 08:40:01;;;;;;;16.97;15.87;;;24.90;81.30;;;;;;3614308;39;20492;-42
2021/04/17 08:42:48;;;;;;;17.77;16.50;;;25.00;81.30;;;;;;3614615;39;20792;-44
2021/04/17 08:45:17;;;;;;;17.10;16.00;;;25.00;81.40;;;;;;3612809;39;20473;-43
2021/04/17 08:47:50;;;;;;;17.03;16.10;;;25.00;81.40;;;;;;3608745;39;20791;-43
2021/04/17 08:50:26;;;;;;;17.23;16.43;;;25.00;81.40;;;;;;3611609;39;20469;-43
2021/04/17 08:53:02;;;;;;;17.00;15.90;;;25.00;81.50;;;;;;3612148;39;20503;-43
2021/04/17 08:55:29;;;;;;;16.53;15.60;;;25.00;81.50;;;;;;3613067;39;20478;-43
2021/04/17 08:58:13;;;;;;;16.13;15.07;;;25.00;81.40;;;;;;3612962;39;20493;-42
2021/04/17 09:00:41;;;;;;;16.50;15.60;;;25.00;81.50;;;;;;3610639;39;20473;-43
2021/04/17 09:03:08;;;;;;;17.37;16.17;;;25.00;81.60;;;;;;3611497;39;20479;-42
2021/04/17 09:05:45;;;;;;;16.50;15.70;;;25.00;81.70;;;;;;3613618;39;20527;-42
2021/04/17 09:08:14;;;;;;;16.77;15.90;;;25.00;81.80;;;;;;3611353;39;20798;-42
2021/04/17 09:10:41;;;;;;;17.20;15.90;;;25.00;81.80;;;;;;3611125;39;20558;-43
2021/04/17 09:13:31;;;;;;;17.17;16.17;;;25.00;81.90;;;;;;3612021;39;21003;-42
2021/04/17 09:15:58;;;;;;;16.37;15.47;;;25.00;82.10;;;;;;3613190;39;20699;-43
2021/04/17 09:18:44;;;;;;;16.30;15.43;;;25.00;82.10;;;;;;3612734;39;20712;-42
2021/04/17 09:21:34;;;;;;;16.07;15.23;;;25.00;82.30;;;;;;3611131;39;20902;-42
2021/04/17 09:24:02;;;;;;;17.37;16.00;;;25.00;82.40;;;;;;3614383;39;20932;-42
2021/04/17 09:26:40;;;;;;;17.17;16.20;;;25.00;82.40;;;;;;3613510;39;20522;-42
2021/04/17 09:29:27;;;;;;;17.67;16.57;;;25.00;82.60;;;;;;3613448;39;20484;-42
2021/04/17 09:32:01;;;;;;;17.90;16.70;;;25.00;82.70;;;;;;3613699;39;20490;-44
2021/04/17 09:34:27;;;;;;;18.10;16.80;;;25.00;82.70;;;;;;3611788;39;20498;-42
2021/04/17 09:36:54;;;;;;;17.30;16.30;;;25.00;82.80;;;;;;3610332;39;20485;-42
2021/04/17 09:39:29;;;;;;;17.20;15.83;;;25.00;82.80;;;;;;3611748;39;20488;-42
2021/04/17 09:41:57;;;;;;;17.30;16.30;;;25.00;82.90;;;;;;3611789;39;20571;-42
2021/04/17 09:44:24;;;;;;;18.40;16.80;;;25.00;82.90;;;;;;3612141;39;20555;-42
2021/04/17 09:47:09;;;;;;;17.97;16.70;;;25.00;82.80;;;;;;3611661;39;20485;-42
2021/04/17 09:49:40;;;;;;;17.70;16.43;;;25.00;83.00;;;;;;3612671;39;20996;-42
2021/04/17 09:52:08;;;;;;;17.67;16.30;;;25.00;83.00;;;;;;3612671;39;20488;-42
2021/04/17 09:54:35;;;;;;;18.13;16.93;;;24.90;83.10;;;;;;3611304;39;20516;-43
2021/04/17 09:57:06;;;;;;;18.20;16.87;;;24.90;83.10;;;;;;3612041;39;20486;-42
2021/04/17 09:59:33;;;;;;;17.00;15.80;;;24.90;83.10;;;;;;3611346;39;20484;-43
2021/04/17 10:02:02;;;;;;;19.53;17.90;;;24.90;83.20;;;;;;3610717;39;20853;-42
2021/04/17 10:04:51;;;;;;;17.90;16.23;;;24.90;83.20;;;;;;3610360;39;20493;-43
2021/04/17 10:07:18;;;;;;;19.13;17.17;;;24.90;83.40;;;;;;3611195;39;20513;-42
2021/04/17 10:10:04;;;;;;;18.20;16.60;;;24.90;83.30;;;;;;3612953;39;20484;-42
2021/04/17 10:12:32;;;;;;;17.93;16.63;;;24.80;83.50;;;;;;3613695;39;20500;-45
2021/04/17 10:15:18;;;;;;;18.10;16.90;;;24.80;83.40;;;;;;3613005;39;20863;-42
2021/04/17 10:17:45;;;;;;;17.87;16.47;;;24.80;83.60;;;;;;3614169;39;20485;-42
2021/04/17 10:20:15;;;;;;;17.87;16.57;;;24.80;83.60;;;;;;3613805;39;20492;-42
2021/04/17 10:22:50;;;;;;;18.83;16.53;;;24.80;83.60;;;;;;3613347;39;20502;-45
2021/04/17 10:25:36;;;;;;;18.03;16.83;;;24.70;83.60;;;;;;3612217;39;20861;-44
2021/04/17 10:28:19;;;;;;;18.30;16.63;;;24.80;83.80;;;;;;3612963;39;20491;-43
2021/04/17 10:30:48;;;;;;;18.07;16.73;;;24.70;83.80;;;;;;3612121;39;21100;-43
2021/04/17 10:33:17;;;;;;;18.10;16.83;;;24.70;83.80;;;;;;3614189;39;20493;-43
2021/04/17 10:35:50;;;;;;;18.50;17.07;;;24.70;83.90;;;;;;3612545;39;20895;-44
2021/04/17 10:38:29;;;;;;;18.00;16.30;;;24.70;84.00;;;;;;3613282;39;20478;-43
2021/04/17 10:41:00;;;;;;;18.17;16.70;;;24.70;84.00;;;;;;3612918;39;20481;-43
2021/04/17 10:43:29;;;;;;;19.43;17.47;;;24.70;84.00;;;;;;3610842;39;20567;-43
2021/04/17 10:45:58;;;;;;;18.87;17.27;;;24.70;84.00;;;;;;3607960;39;20489;-42
2021/04/17 10:48:26;;;;;;;18.70;16.93;;;24.70;84.20;;;;;;3611906;39;20498;-42
2021/04/17 10:51:01;;;;;;;18.17;16.90;;;24.70;84.20;;;;;;3609084;39;21276;-42
2021/04/17 10:53:29;;;;;;;21.60;16.70;;;24.60;84.10;;;;;;3612671;39;20709;-43
2021/04/17 10:55:59;;;;;;;18.73;17.47;;;24.60;84.20;;;;;;3611629;39;20509;-43
2021/04/17 10:58:28;;;;;;;19.83;17.67;;;24.40;65.80;;;;;;3613610;39;21137;-42
2021/04/17 11:00:59;;;;;;;18.60;17.17;;;24.20;75.50;;;;;;3613800;39;20489;-42
2021/04/17 11:03:28;;;;;;;20.33;16.90;;;24.30;80.60;;;;;;3602084;39;20483;-43
2021/04/17 11:05:56;;;;;;;18.13;16.83;;;24.30;81.80;;;;;;3604317;39;20559;-43
2021/04/17 11:08:28;;;;;;;19.47;17.57;;;24.30;82.50;;;;;;3602115;39;20493;-41
2021/04/17 11:10:55;;;;;;;17.60;16.10;;;24.30;82.90;;;;;;3613430;39;20551;-43
2021/04/17 11:13:41;;;;;;;17.67;16.60;;;24.30;83.10;;;;;;3613992;39;20520;-42
2021/04/17 11:16:09;;;;;;;19.30;17.73;;;24.40;83.50;;;;;;3603614;39;20495;-42
2021/04/17 11:18:37;;;;;;;18.67;17.13;;;24.40;83.50;;;;;;3614332;39;21451;-43
2021/04/17 11:21:06;;;;;;;19.40;16.97;;;24.40;83.60;;;;;;3612543;39;20485;-43
2021/04/17 11:23:38;;;;;;;18.70;17.10;;;24.40;83.70;;;;;;3602839;39;20496;-43
2021/04/17 11:26:06;;;;;;;18.13;16.70;;;24.50;83.80;;;;;;3611217;39;20550;-42
2021/04/17 11:28:32;;;;;;;17.63;16.13;;;24.50;83.80;;;;;;3614899;39;20826;-43
2021/04/17 11:30:59;;;;;;;19.13;16.80;;;24.50;83.90;;;;;;3612809;39;20719;-42
2021/04/17 11:33:26;;;;;;;17.70;16.40;;;24.50;83.90;;;;;;3613915;39;20705;-44
2021/04/17 11:35:53;;;;;;;18.07;16.47;;;24.50;84.00;;;;;;3613071;39;20475;-43
2021/04/17 11:38:21;;;;;;;18.07;16.70;;;24.50;84.00;;;;;;3612248;39;20682;-42
2021/04/17 11:40:48;;;;;;;17.80;16.50;;;24.50;84.10;;;;;;3611711;39;20806;-43
2021/04/17 11:43:14;;;;;;;17.87;16.37;;;24.50;84.10;;;;;;3611906;39;20480;-42
2021/04/17 11:45:41;;;;;;;17.37;16.13;;;24.50;84.10;;;;;;3611499;39;20485;-42
2021/04/17 11:48:07;;;;;;;17.80;16.47;;;24.50;84.20;;;;;;3611865;39;20486;-42
2021/04/17 11:50:35;;;;;;;17.87;16.63;;;24.50;84.20;;;;;;3612882;39;20476;-43
2021/04/17 11:53:01;;;;;;;19.47;17.00;;;24.50;84.20;;;;;;3614834;39;20584;-44
2021/04/17 11:55:35;;;;;;;18.10;16.30;;;24.50;85.00;;;;;;3611286;39;20480;-44
2021/04/17 11:58:03;;;;;;;20.63;17.23;;;24.40;84.20;;;;;;3612436;39;21192;-43
2021/04/17 12:00:29;;;;;;;17.50;16.00;;;24.50;84.40;;;;;;3613645;39;20482;-42
2021/04/17 12:02:56;;;;;;;18.47;16.73;;;24.50;84.40;;;;;;3611920;39;20704;-43
2021/04/17 12:05:22;;;;;;;18.40;17.10;;;24.50;84.50;;;;;;3610622;39;20864;-44
2021/04/17 12:07:49;;;;;;;17.60;16.30;;;24.40;84.50;;;;;;3611158;39;20544;-44
2021/04/17 12:10:16;;;;;;;17.27;16.07;;;24.40;84.60;;;;;;3610551;39;21058;-43
2021/04/17 12:12:44;;;;;;;17.93;16.73;;;24.40;84.60;;;;;;3612378;39;20494;-44
2021/04/17 12:15:12;;;;;;;18.30;16.47;;;24.40;84.60;;;;;;3610971;39;20864;-43
2021/04/17 12:17:39;;;;;;;17.63;16.13;;;24.40;84.70;;;;;;3612012;39;20491;-42
2021/04/17 12:20:06;;;;;;;17.43;16.23;;;24.40;84.70;;;;;;3613130;39;20472;-42
2021/04/17 12:22:33;;;;;;;16.07;15.17;;;24.40;84.80;;;;;;3613859;39;20465;-43
2021/04/17 12:25:00;;;;;;;18.50;16.53;;;24.40;84.80;;;;;;3613924;39;20478;-42
2021/04/17 12:27:26;;;;;;;16.80;15.70;;;24.40;84.90;;;;;;3611364;39;20486;-44
2021/04/17 12:29:58;;;;;;;17.00;15.80;;;24.40;84.90;;;;;;3607567;39;20484;-43
2021/04/17 12:32:25;;;;;;;17.23;15.90;;;24.40;85.00;;;;;;3610775;39;20479;-43
2021/04/17 12:34:52;;;;;;;17.83;16.20;;;24.40;85.10;;;;;;3612389;39;20473;-43
2021/04/17 12:37:19;;;;;;;17.33;15.80;;;24.40;85.10;;;;;;3609768;39;20525;-43
2021/04/17 12:39:46;;;;;;;17.63;16.27;;;24.40;85.20;;;;;;3611245;39;20488;-41